Time;durP1;ratioP1;P1;durP2;ratioP2;P2;SDS_P1;SDS_P2;PMS_P1;PMS_P2;Temp;Humidity;BMP_temperature;BMP_pressure;BME280_temperature;BME280_humidity;BME280_pressure;Samples;Min_cycle;Max_cycle;Signal;HPM_P1;HPM_P2
2021/09/07 00:01:49;;;;;;;16.23;10.85;;;;;;;16.18;75.80;102349.50;5017246;28;20022;-83
2021/09/07 00:04:14;;;;;;;20.27;11.15;;;;;;;16.16;75.86;102346.22;5025144;28;20041;-82
2021/09/07 00:06:40;;;;;;;15.43;10.50;;;;;;;16.14;75.91;102337.50;5018063;28;20044;-82
2021/09/07 00:09:06;;;;;;;16.30;10.27;;;;;;;16.11;76.06;102336.13;5017840;28;20079;-82
2021/09/07 00:11:32;;;;;;;18.08;11.32;;;;;;;16.10;76.17;102330.97;5016820;28;22202;-82
2021/09/07 00:13:57;;;;;;;15.73;10.73;;;;;;;16.05;76.38;102334.41;5016603;28;20026;-81
2021/09/07 00:16:23;;;;;;;17.25;10.50;;;;;;;16.02;76.36;102330.31;5028779;28;20125;-83
2021/09/07 00:18:48;;;;;;;15.45;11.13;;;;;;;16.02;76.49;102326.78;5029281;28;20025;-81
2021/09/07 00:21:14;;;;;;;16.83;10.57;;;;;;;15.99;76.39;102330.81;5015632;28;20025;-81
2021/09/07 00:23:39;;;;;;;19.98;11.07;;;;;;;15.99;76.42;102328.09;5006380;28;20028;-82
2021/09/07 00:26:05;;;;;;;17.52;10.55;;;;;;;15.99;76.68;102328.09;5016289;28;20027;-80
2021/09/07 00:28:31;;;;;;;18.52;10.77;;;;;;;16.04;76.95;102321.97;5012192;28;20120;-81
2021/09/07 00:30:56;;;;;;;14.10;10.13;;;;;;;16.03;77.03;102320.31;5024259;28;20022;-81
2021/09/07 00:33:22;;;;;;;15.25;10.23;;;;;;;15.98;77.24;102323.78;5014662;28;20586;-83
2021/09/07 00:35:47;;;;;;;15.85;10.45;;;;;;;15.93;77.38;102320.13;5010533;28;20033;-82
2021/09/07 00:38:13;;;;;;;17.40;11.00;;;;;;;15.97;77.39;102322.09;5015802;28;20047;-82
2021/09/07 00:40:38;;;;;;;17.25;11.55;;;;;;;15.97;77.37;102324.81;5016307;28;20060;-83
2021/09/07 00:43:04;;;;;;;18.92;11.60;;;;;;;15.99;77.47;102328.09;5015892;28;20029;-82
2021/09/07 00:45:29;;;;;;;18.25;11.35;;;;;;;15.95;77.61;102328.81;5013663;28;20476;-82
2021/09/07 00:47:56;;;;;;;17.58;12.27;;;;;;;15.88;77.94;102325.47;5013156;28;20030;-82
2021/09/07 00:50:23;;;;;;;15.95;11.18;;;;;;;15.89;78.10;102325.22;5013809;28;20021;-82
2021/09/07 00:52:50;;;;;;;18.27;11.85;;;;;;;15.89;77.99;102325.22;5021505;28;20022;-82
2021/09/07 00:55:16;;;;;;;18.08;11.23;;;;;;;15.88;78.29;102329.00;5026667;28;20035;-83
2021/09/07 00:57:44;;;;;;;20.02;11.35;;;;;;;15.86;78.40;102331.13;5019465;28;20479;-83
2021/09/07 01:00:11;;;;;;;15.90;11.18;;;;;;;15.85;78.33;102334.06;5019111;28;20056;-82
2021/09/07 01:02:37;;;;;;;17.25;11.82;;;;;;;15.83;78.48;102333.50;5015798;28;20026;-82
2021/09/07 01:05:04;;;;;;;21.80;11.70;;;;;;;15.83;78.85;102331.63;5018923;28;20040;-82
2021/09/07 01:07:33;;;;;;;19.30;12.18;;;;;;;15.84;78.51;102337.84;5035563;28;20036;-82
2021/09/07 01:09:58;;;;;;;16.63;11.20;;;;;;;15.83;78.79;102333.50;5008760;28;20544;-82
2021/09/07 01:12:24;;;;;;;20.50;12.50;;;;;;;15.78;79.06;102339.63;5016339;28;20108;-82
2021/09/07 01:14:49;;;;;;;15.50;10.68;;;;;;;15.79;78.77;102335.84;5016037;28;20052;-82
2021/09/07 01:17:17;;;;;;;15.48;10.68;;;;;;;15.80;78.83;102333.97;5015661;28;20033;-82
2021/09/07 01:19:46;;;;;;;18.75;11.40;;;;;;;15.77;78.99;102332.56;5011933;28;20036;-82
2021/09/07 01:22:13;;;;;;;18.65;12.27;;;;;;;15.79;79.01;102329.63;5009327;28;20253;-83
2021/09/07 01:24:39;;;;;;;17.65;12.07;;;;;;;15.78;78.95;102326.09;5010666;28;20098;-81
2021/09/07 01:27:05;;;;;;;17.77;12.05;;;;;;;15.78;79.00;102331.50;5009668;28;20021;-82
2021/09/07 01:29:36;;;;;;;21.42;12.73;;;;;;;15.77;79.35;102329.06;5007524;28;20160;-82
2021/09/07 01:32:04;;;;;;;18.50;11.30;;;;;;;15.78;79.26;102323.41;5013071;28;20083;-81
2021/09/07 01:34:30;;;;;;;18.27;12.15;;;;;;;15.80;79.37;102324.00;5029902;28;20044;-83
2021/09/07 01:36:56;;;;;;;19.27;11.73;;;;;;;15.80;79.23;102326.72;5013640;28;20021;-81
2021/09/07 01:39:23;;;;;;;18.65;11.85;;;;;;;15.80;79.32;102315.91;5013602;28;20390;-82
2021/09/07 01:41:48;;;;;;;17.63;11.70;;;;;;;15.81;79.34;102314.84;5017775;28;20069;-82
2021/09/07 01:44:15;;;;;;;15.80;10.90;;;;;;;15.83;79.37;102310.00;5017509;28;20029;-83
2021/09/07 01:46:40;;;;;;;14.23;10.88;;;;;;;15.80;79.38;102317.75;5021092;28;20036;-82
2021/09/07 01:49:09;;;;;;;16.60;11.50;;;;;;;15.76;79.48;102314.72;5030674;28;20526;-83
2021/09/07 01:51:38;;;;;;;16.98;10.68;;;;;;;15.75;79.80;102314.97;5019445;28;20253;-82
2021/09/07 01:54:05;;;;;;;17.33;10.82;;;;;;;15.74;79.77;102316.03;5005078;28;20076;-83
2021/09/07 01:56:31;;;;;;;18.38;11.30;;;;;;;15.74;79.89;102310.63;5034029;28;20103;-82
2021/09/07 01:58:57;;;;;;;18.33;11.93;;;;;;;15.71;80.01;102312.75;5020478;28;20033;-82
2021/09/07 02:01:22;;;;;;;17.70;11.93;;;;;;;15.69;80.38;102314.06;5005736;28;20022;-83
2021/09/07 02:03:48;;;;;;;22.05;11.73;;;;;;;15.68;80.10;102313.25;5010255;28;20021;-83
2021/09/07 02:06:15;;;;;;;16.83;11.02;;;;;;;15.65;80.27;102315.63;5011190;28;20044;-83
2021/09/07 02:08:40;;;;;;;17.15;11.88;;;;;;;15.59;80.73;102314.69;5010218;28;20040;-83
2021/09/07 02:11:06;;;;;;;20.13;11.60;;;;;;;15.56;80.80;102319.75;5020021;28;20021;-82
2021/09/07 02:13:31;;;;;;;22.30;12.38;;;;;;;15.53;80.66;102304.84;5013107;28;20033;-82
2021/09/07 02:15:57;;;;;;;19.67;10.82;;;;;;;15.52;80.77;102313.19;5029108;28;20654;-85
2021/09/07 02:18:22;;;;;;;14.82;10.95;;;;;;;15.49;81.10;102311.81;5020520;28;20160;-83
2021/09/07 02:20:48;;;;;;;14.85;10.93;;;;;;;15.49;81.19;102309.09;5015230;28;20029;-82
2021/09/07 02:23:13;;;;;;;17.88;11.10;;;;;;;15.47;81.31;102310.41;5016697;28;20605;-82
2021/09/07 02:25:39;;;;;;;15.82;11.20;;;;;;;15.42;81.26;102314.63;5011210;28;20034;-82
2021/09/07 02:28:04;;;;;;;15.25;11.02;;;;;;;15.42;81.24;102321.91;5013307;28;20071;-81
2021/09/07 02:30:30;;;;;;;15.88;10.80;;;;;;;15.41;81.66;102322.97;5026401;28;20036;-82
2021/09/07 02:32:56;;;;;;;16.73;10.55;;;;;;;15.38;81.49;102324.28;5019796;28;20018;-83
2021/09/07 02:35:23;;;;;;;17.70;10.98;;;;;;;15.37;81.59;102321.84;5012988;28;20056;-83
2021/09/07 02:37:48;;;;;;;16.75;11.00;;;;;;;15.34;81.62;102330.44;5020809;28;20029;-82
2021/09/07 02:40:14;;;;;;;17.73;11.27;;;;;;;15.35;81.66;102330.19;5015954;28;20021;-83
2021/09/07 02:42:40;;;;;;;15.93;11.57;;;;;;;15.31;81.57;102331.72;5017720;28;20112;-83
2021/09/07 02:45:06;;;;;;;16.10;10.43;;;;;;;15.27;81.83;102332.47;5014902;28;20032;-83
2021/09/07 02:47:32;;;;;;;14.85;10.85;;;;;;;15.27;81.97;102327.88;5009740;28;20491;-82
2021/09/07 02:49:58;;;;;;;15.30;10.30;;;;;;;15.26;81.74;102322.69;5012615;28;20036;-84
2021/09/07 02:52:23;;;;;;;17.15;10.85;;;;;;;15.22;81.87;102330.47;5023638;28;20025;-83
2021/09/07 02:54:49;;;;;;;18.88;10.93;;;;;;;15.19;81.87;102330.94;5016657;28;20044;-83
2021/09/07 02:57:14;;;;;;;16.50;10.68;;;;;;;15.15;81.85;102321.69;5015739;28;20022;-83
2021/09/07 02:59:40;;;;;;;19.42;12.13;;;;;;;15.05;82.13;102325.00;5027172;28;20047;-82
2021/09/07 03:02:05;;;;;;;18.95;12.70;;;;;;;14.99;81.93;102319.75;5039333;28;20076;-81
2021/09/07 03:04:31;;;;;;;18.58;11.90;;;;;;;14.93;82.17;102320.72;5038031;28;20029;-81
2021/09/07 03:06:57;;;;;;;19.60;12.07;;;;;;;14.79;82.71;102322.84;5022337;28;20495;-82
2021/09/07 03:09:22;;;;;;;17.85;11.75;;;;;;;14.74;82.52;102328.97;5016021;28;20033;-81
2021/09/07 03:11:48;;;;;;;18.65;11.95;;;;;;;14.65;82.59;102321.47;5032011;28;20021;-82
2021/09/07 03:14:13;;;;;;;17.90;12.40;;;;;;;14.59;83.09;102319.72;5018406;28;20017;-82
2021/09/07 03:16:39;;;;;;;16.77;11.45;;;;;;;14.50;83.00;102327.34;5023246;28;20125;-81
2021/09/07 03:19:04;;;;;;;21.45;13.90;;;;;;;14.41;83.09;102323.34;5028713;28;20032;-83
2021/09/07 03:21:30;;;;;;;18.63;12.32;;;;;;;14.35;83.60;102324.25;5029599;28;20049;-82
2021/09/07 03:23:56;;;;;;;17.23;12.18;;;;;;;14.29;83.61;102320.63;5028717;28;20020;-82
2021/09/07 03:26:21;;;;;;;16.85;11.48;;;;;;;14.26;83.60;102328.38;5018512;28;20029;-83
2021/09/07 03:28:47;;;;;;;17.95;11.88;;;;;;;14.18;83.37;102324.97;5015711;28;20041;-83
2021/09/07 03:31:13;;;;;;;18.80;11.13;;;;;;;14.13;83.09;102321.31;5019200;28;20097;-83
2021/09/07 03:33:38;;;;;;;15.95;10.82;;;;;;;14.12;83.32;102328.59;5017671;28;20040;-83
2021/09/07 03:36:04;;;;;;;15.68;10.38;;;;;;;14.03;83.30;102327.31;5018691;28;20556;-81
2021/09/07 03:38:30;;;;;;;18.35;10.30;;;;;;;13.94;83.54;102317.91;5019978;28;20041;-81
2021/09/07 03:40:55;;;;;;;14.10;9.05;;;;;;;13.90;83.56;102322.13;5029410;28;21031;-82
2021/09/07 03:43:21;;;;;;;12.57;8.95;;;;;;;13.83;83.45;102324.13;5013165;28;20032;-81
2021/09/07 03:45:46;;;;;;;12.18;8.20;;;;;;;13.77;83.62;102325.03;5017705;28;20022;-83
2021/09/07 03:48:12;;;;;;;11.82;8.52;;;;;;;13.74;83.47;102326.31;5026992;28;20029;-82
2021/09/07 03:50:37;;;;;;;12.07;8.32;;;;;;;13.73;83.41;102332.75;5017971;28;20071;-82
2021/09/07 03:53:03;;;;;;;10.93;8.45;;;;;;;13.75;83.88;102329.81;5023148;28;20071;-82
2021/09/07 03:55:29;;;;;;;11.35;7.95;;;;;;;13.76;83.87;102339.53;5018376;28;20503;-82
2021/09/07 03:57:54;;;;;;;13.05;8.23;;;;;;;13.77;84.01;102339.31;5014239;28;20618;-83
2021/09/07 04:00:20;;;;;;;11.18;7.70;;;;;;;13.81;83.67;102340.47;5029527;28;20384;-82
2021/09/07 04:02:45;;;;;;;10.07;8.23;;;;;;;13.84;83.59;102347.31;5016434;28;20025;-82
2021/09/07 04:05:11;;;;;;;10.43;8.02;;;;;;;13.87;83.70;102346.84;5016635;28;20692;-82
2021/09/07 04:07:37;;;;;;;9.35;8.10;;;;;;;13.91;83.37;102354.22;5019368;28;20041;-83
2021/09/07 04:10:04;;;;;;;10.18;8.10;;;;;;;13.91;84.45;102354.22;5015635;28;20029;-81
2021/09/07 04:12:29;;;;;;;14.93;10.13;;;;;;;13.98;84.13;102361.38;5033067;28;20029;-82
2021/09/07 04:14:54;;;;;;;13.65;9.82;;;;;;;14.04;83.97;102353.19;5016350;28;20028;-82
2021/09/07 04:17:21;;;;;;;12.73;8.77;;;;;;;14.08;83.92;102348.16;5015059;28;20039;-82
2021/09/07 04:19:47;;;;;;;14.07;11.18;;;;;;;14.12;83.62;102355.53;5009927;28;20039;-83
2021/09/07 04:22:12;;;;;;;14.38;10.95;;;;;;;14.17;83.84;102357.53;5050298;28;20054;-82
2021/09/07 04:24:38;;;;;;;13.65;10.25;;;;;;;14.20;84.07;102355.22;5023167;28;20025;-83
2021/09/07 04:27:03;;;;;;;14.00;9.85;;;;;;;14.21;84.02;102364.94;5016061;28;20107;-82
2021/09/07 04:29:29;;;;;;;14.43;9.90;;;;;;;14.20;84.00;102352.53;5018243;28;20171;-82
2021/09/07 04:31:54;;;;;;;15.00;10.20;;;;;;;14.18;83.87;102356.47;5024109;28;20032;-82
2021/09/07 04:34:20;;;;;;;12.63;8.80;;;;;;;14.16;84.00;102358.59;5024481;28;20482;-82
2021/09/07 04:36:46;;;;;;;15.50;11.00;;;;;;;14.09;84.15;102364.09;5021908;28;20095;-82
2021/09/07 04:39:11;;;;;;;15.38;10.13;;;;;;;14.06;84.20;102364.56;5012009;28;20055;-83
2021/09/07 04:41:37;;;;;;;14.65;10.00;;;;;;;14.04;84.17;102368.56;5013420;28;20035;-80
2021/09/07 04:44:03;;;;;;;14.02;9.38;;;;;;;14.00;84.50;102370.88;5031754;28;20407;-80
2021/09/07 04:46:28;;;;;;;12.95;8.85;;;;;;;13.99;83.89;102374.63;5021723;28;20032;-81
2021/09/07 04:48:54;;;;;;;12.38;7.95;;;;;;;13.94;84.08;102376.38;5013889;28;20040;-83
2021/09/07 04:51:21;;;;;;;11.02;8.63;;;;;;;13.89;83.92;102377.06;5013810;28;20582;-83
2021/09/07 04:53:46;;;;;;;15.95;10.30;;;;;;;13.82;84.39;102379.03;5027844;28;20029;-83
2021/09/07 04:56:14;;;;;;;10.90;8.15;;;;;;;13.81;84.21;102382.75;5017749;28;20298;-84
2021/09/07 04:58:39;;;;;;;14.13;9.75;;;;;;;13.79;84.00;102374.91;5020967;28;20033;-83
2021/09/07 05:01:06;;;;;;;12.43;9.15;;;;;;;13.75;83.97;102383.69;5018739;28;20032;-83
2021/09/07 05:03:31;;;;;;;13.75;9.27;;;;;;;13.75;83.96;102379.13;5014614;28;20033;-81
2021/09/07 05:05:57;;;;;;;15.27;9.70;;;;;;;13.72;83.67;102379.59;5012261;28;20040;-81
2021/09/07 05:08:22;;;;;;;13.05;8.35;;;;;;;13.68;83.58;102375.72;5014567;28;20040;-82
2021/09/07 05:10:48;;;;;;;10.77;9.02;;;;;;;13.69;83.63;102384.63;5030746;28;20040;-82
2021/09/07 05:13:13;;;;;;;18.88;9.43;;;;;;;13.70;83.64;102387.09;5016127;28;20017;-83
2021/09/07 05:15:39;;;;;;;14.00;9.85;;;;;;;13.75;83.37;102387.22;5013203;28;20044;-81
2021/09/07 05:18:04;;;;;;;19.23;11.98;;;;;;;13.80;83.62;102389.22;5005621;28;20025;-82
2021/09/07 05:20:30;;;;;;;23.80;13.50;;;;;;;13.83;83.89;102392.28;5004475;28;20026;-82
2021/09/07 05:22:55;;;;;;;11.27;7.50;;;;;;;13.89;83.37;102390.53;5010677;28;20555;-84
2021/09/07 05:25:21;;;;;;;12.70;9.65;;;;;;;13.94;83.14;102396.06;5020823;28;20039;-81
2021/09/07 05:27:46;;;;;;;13.32;8.98;;;;;;;14.03;83.05;102394.69;5013078;28;20026;-81
2021/09/07 05:30:12;;;;;;;13.05;9.02;;;;;;;14.17;82.93;102398.78;5009938;28;20018;-82
2021/09/07 05:32:38;;;;;;;12.52;8.68;;;;;;;14.34;82.45;102398.09;5022346;28;20029;-81
2021/09/07 05:35:05;;;;;;;17.45;11.05;;;;;;;14.56;82.11;102406.50;5008744;28;20033;-81
2021/09/07 05:37:37;;;;;;;14.80;9.80;;;;;;;14.75;81.16;102399.94;5007158;28;20569;-81
2021/09/07 05:40:03;;;;;;;15.13;9.18;;;;;;;14.92;81.11;102397.34;5029128;28;20029;-82
2021/09/07 05:42:29;;;;;;;18.27;9.98;;;;;;;15.08;80.84;102394.72;5012013;28;20595;-82
2021/09/07 05:44:54;;;;;;;17.63;11.57;;;;;;;15.26;80.01;102391.06;5014059;28;20029;-82
2021/09/07 05:47:20;;;;;;;19.85;13.88;;;;;;;15.14;82.21;102392.94;5023591;28;20029;-81
2021/09/07 05:49:47;;;;;;;26.25;14.18;;;;;;;15.16;82.62;102393.53;5025266;28;20099;-82
2021/09/07 05:52:13;;;;;;;26.58;13.68;;;;;;;14.98;84.51;102399.09;5020122;28;20025;-81
2021/09/07 05:54:38;;;;;;;21.75;13.95;;;;;;;15.18;83.23;102383.31;5014040;28;20479;-82
2021/09/07 05:57:04;;;;;;;24.27;13.90;;;;;;;15.33;83.16;102396.31;5006992;28;20029;-81
2021/09/07 05:59:30;;;;;;;22.52;13.95;;;;;;;15.49;82.96;102392.03;5012919;28;20043;-83
2021/09/07 06:01:55;;;;;;;26.85;15.02;;;;;;;15.57;82.85;102402.44;5006982;28;20025;-81
2021/09/07 06:04:20;;;;;;;24.48;14.50;;;;;;;15.71;81.75;102404.63;5012318;28;20513;-81
2021/09/07 06:06:46;;;;;;;25.05;13.57;;;;;;;15.75;81.78;102407.66;5012099;28;20030;-82
2021/09/07 06:09:11;;;;;;;21.83;13.55;;;;;;;15.84;81.23;102400.81;5011372;28;20089;-81
2021/09/07 06:11:38;;;;;;;25.13;13.85;;;;;;;15.96;80.58;102401.56;5012623;28;20025;-81
2021/09/07 06:14:04;;;;;;;25.30;13.32;;;;;;;16.07;79.77;102407.16;5013989;28;20024;-81
2021/09/07 06:16:30;;;;;;;24.40;14.20;;;;;;;15.79;80.97;102405.28;5012586;28;20103;-81
2021/09/07 06:18:55;;;;;;;22.50;13.50;;;;;;;15.78;81.00;102401.78;5013989;28;20033;-82
2021/09/07 06:21:20;;;;;;;22.75;14.20;;;;;;;15.94;80.34;102395.59;5015605;28;20025;-82
2021/09/07 06:23:46;;;;;;;24.60;13.73;;;;;;;15.99;79.96;102401.09;5015030;28;20476;-81
2021/09/07 06:26:11;;;;;;;24.48;14.50;;;;;;;16.13;79.90;102400.75;5031447;28;20048;-83
2021/09/07 06:28:37;;;;;;;26.85;14.38;;;;;;;16.32;79.02;102399.44;5012034;28;20029;-82
2021/09/07 06:31:03;;;;;;;25.65;14.20;;;;;;;16.21;78.73;102403.91;5012072;28;20029;-82
2021/09/07 06:33:29;;;;;;;19.70;13.93;;;;;;;16.48;78.10;102405.94;5014584;28;20091;-82
2021/09/07 06:35:54;;;;;;;28.55;14.77;;;;;;;16.66;77.72;102415.66;5011136;28;20029;-81
2021/09/07 06:38:21;;;;;;;21.73;14.10;;;;;;;16.80;77.25;102411.56;5012610;28;20056;-82
2021/09/07 06:40:46;;;;;;;22.58;13.43;;;;;;;17.05;76.30;102409.19;5012770;28;20814;-82
2021/09/07 06:43:12;;;;;;;17.88;12.50;;;;;;;17.72;74.49;102403.53;5014725;28;20037;-81
2021/09/07 06:45:37;;;;;;;19.45;13.02;;;;;;;17.99;72.64;102410.84;5016955;28;20117;-82
2021/09/07 06:48:03;;;;;;;23.17;12.82;;;;;;;18.37;71.37;102412.53;5017434;28;20021;-82
2021/09/07 06:50:29;;;;;;;20.25;12.02;;;;;;;18.73;70.29;102419.03;5011338;28;20060;-81
2021/09/07 06:52:54;;;;;;;22.50;12.75;;;;;;;18.86;69.07;102413.16;5026346;28;20026;-82
2021/09/07 06:55:20;;;;;;;18.52;12.10;;;;;;;19.23;68.19;102413.06;5023574;28;20030;-82
2021/09/07 06:57:45;;;;;;;24.50;12.63;;;;;;;19.06;66.27;102409.72;5014654;28;20123;-82
2021/09/07 07:00:11;;;;;;;22.33;12.13;;;;;;;19.47;66.48;102418.84;5012147;28;20068;-82
2021/09/07 07:02:39;;;;;;;19.10;11.88;;;;;;;19.54;65.90;102413.16;5022617;28;20063;-82
2021/09/07 07:05:05;;;;;;;20.33;12.50;;;;;;;19.56;64.36;102417.25;5012779;28;20524;-83
2021/09/07 07:07:31;;;;;;;21.02;12.00;;;;;;;19.56;65.03;102414.53;5033149;28;20033;-83
2021/09/07 07:09:56;;;;;;;21.65;11.98;;;;;;;19.98;64.55;102418.16;5015792;28;20480;-81
2021/09/07 07:12:22;;;;;;;18.52;11.13;;;;;;;20.00;62.59;102419.53;5020405;28;20029;-84
2021/09/07 07:14:47;;;;;;;17.08;10.35;;;;;;;20.43;63.14;102414.63;5013808;28;20057;-83
2021/09/07 07:17:13;;;;;;;16.17;11.00;;;;;;;20.59;62.22;102408.09;5016319;28;20025;-83
2021/09/07 07:19:38;;;;;;;18.17;9.73;;;;;;;20.59;61.50;102420.88;5013959;28;20038;-79
2021/09/07 07:22:04;;;;;;;16.95;10.82;;;;;;;20.00;62.44;102426.88;5015812;28;20163;-79
2021/09/07 07:24:30;;;;;;;16.05;10.43;;;;;;;20.40;62.60;102428.78;5018481;28;20072;-79
2021/09/07 07:26:55;;;;;;;16.60;9.77;;;;;;;20.74;62.42;102429.03;5030899;28;20060;-79
2021/09/07 07:29:21;;;;;;;19.55;10.80;;;;;;;20.68;60.02;102433.69;5028091;28;20443;-80
2021/09/07 07:31:46;;;;;;;18.83;11.05;;;;;;;20.42;61.38;102432.88;5015184;28;20037;-79
2021/09/07 07:34:12;;;;;;;16.25;10.60;;;;;;;20.21;61.57;102432.03;5018552;28;20029;-80
2021/09/07 07:36:37;;;;;;;16.25;10.18;;;;;;;20.37;62.43;102438.31;5014607;28;20040;-79
2021/09/07 07:39:03;;;;;;;21.50;11.45;;;;;;;20.45;61.47;102431.50;5017000;28;20040;-79
2021/09/07 07:41:29;;;;;;;18.85;10.70;;;;;;;20.38;61.49;102439.94;5029279;28;20592;-80
2021/09/07 07:43:55;;;;;;;19.75;10.10;;;;;;;20.71;61.26;102438.56;5025004;28;20041;-80
2021/09/07 07:46:21;;;;;;;17.85;9.73;;;;;;;21.09;60.63;102430.84;5017138;28;20124;-79
2021/09/07 07:48:47;;;;;;;15.68;9.60;;;;;;;20.96;60.75;102434.97;5017972;28;20030;-80
2021/09/07 07:51:13;;;;;;;14.40;9.90;;;;;;;21.22;60.15;102438.44;5009215;28;20138;-80
2021/09/07 07:53:39;;;;;;;15.68;11.07;;;;;;;20.77;60.63;102439.38;5013657;28;20029;-79
2021/09/07 07:56:06;;;;;;;17.15;10.68;;;;;;;20.95;60.16;102437.97;5014355;28;20138;-79
2021/09/07 07:58:32;;;;;;;16.42;9.85;;;;;;;21.15;60.53;102440.63;5011967;28;20087;-79
2021/09/07 08:00:58;;;;;;;18.80;10.65;;;;;;;21.03;60.35;102435.50;5014648;28;20092;-79
2021/09/07 08:03:24;;;;;;;18.48;10.70;;;;;;;21.40;59.70;102447.94;5014220;28;20018;-79
2021/09/07 08:05:50;;;;;;;19.77;10.40;;;;;;;21.37;59.33;102446.59;5029903;28;20039;-79
2021/09/07 08:08:16;;;;;;;21.10;10.05;;;;;;;20.28;60.97;102458.16;5006927;28;20029;-80
2021/09/07 08:10:42;;;;;;;17.30;10.07;;;;;;;20.79;60.61;102454.34;5019783;28;20511;-79
2021/09/07 08:13:08;;;;;;;18.50;10.13;;;;;;;20.98;59.16;102454.56;5003986;28;20482;-79
2021/09/07 08:15:33;;;;;;;17.33;10.90;;;;;;;21.51;58.15;102449.50;5004582;28;20048;-79
2021/09/07 08:18:00;;;;;;;14.68;9.52;;;;;;;21.93;56.77;102449.00;5003876;28;20503;-79
2021/09/07 08:20:26;;;;;;;14.73;9.85;;;;;;;22.19;54.69;102454.28;5019826;28;20029;-79
2021/09/07 08:22:52;;;;;;;16.85;11.05;;;;;;;21.96;55.37;102450.34;5000755;28;20018;-80
2021/09/07 08:25:18;;;;;;;15.30;9.20;;;;;;;22.07;54.49;102462.00;5003072;28;20044;-80
2021/09/07 08:27:43;;;;;;;17.30;9.80;;;;;;;22.69;52.88;102454.94;5001349;28;21991;-80
2021/09/07 08:30:10;;;;;;;15.48;9.65;;;;;;;22.70;52.90;102453.84;5013080;28;20030;-80
2021/09/07 08:32:40;;;;;;;15.77;10.07;;;;;;;23.10;53.67;102464.34;4998051;28;20943;-80
2021/09/07 08:35:08;;;;;;;39.85;26.98;;;;;;;23.84;52.07;102464.78;4994041;28;20514;-80
2021/09/07 08:37:33;;;;;;;39.25;23.60;;;;;;;24.00;51.41;102462.63;4999031;28;20431;-80
2021/09/07 08:39:59;;;;;;;16.70;10.38;;;;;;;24.35;50.08;102453.88;4997176;28;20032;-80
2021/09/07 08:42:24;;;;;;;16.27;9.13;;;;;;;23.52;51.14;102462.75;4998995;28;20041;-80
2021/09/07 08:44:50;;;;;;;16.63;9.10;;;;;;;24.17;50.35;102457.44;5016733;28;20032;-80
2021/09/07 08:47:19;;;;;;;14.55;8.43;;;;;;;24.36;49.80;102460.97;4999886;28;20566;-80
2021/09/07 08:49:48;;;;;;;19.63;8.98;;;;;;;24.85;48.86;102467.78;5017087;28;20034;-80
2021/09/07 08:52:14;;;;;;;15.27;8.40;;;;;;;24.73;47.18;102463.91;4996391;28;21191;-80
2021/09/07 08:54:41;;;;;;;13.15;8.52;;;;;;;24.82;47.49;102456.63;4998009;28;20500;-80
2021/09/07 08:57:07;;;;;;;16.27;9.48;;;;;;;24.70;47.85;102465.31;5003221;28;20179;-80
2021/09/07 08:59:33;;;;;;;13.18;7.80;;;;;;;25.14;47.51;102458.50;5005108;28;20045;-80
2021/09/07 09:02:20;;;;;;;12.02;8.73;;;;;;;25.52;45.69;102468.09;5001197;28;20029;-80
2021/09/07 09:04:50;;;;;;;13.77;8.45;;;;;;;25.47;47.19;102470.94;4999255;28;20024;-80
2021/09/07 09:07:34;;;;;;;16.10;9.10;;;;;;;24.68;46.24;102471.09;5006102;28;20029;-80
2021/09/07 09:10:00;;;;;;;17.40;8.55;;;;;;;23.42;49.98;102480.09;5018543;28;20053;-80
2021/09/07 09:12:39;;;;;;;13.15;8.23;;;;;;;24.35;49.29;102475.78;5006565;28;20415;-80
2021/09/07 09:15:16;;;;;;;15.57;8.70;;;;;;;25.10;49.07;102473.91;5003253;28;20025;-80
2021/09/07 09:17:42;;;;;;;13.60;7.60;;;;;;;25.51;47.18;102474.72;5002612;28;20360;-80
2021/09/07 09:20:14;;;;;;;13.48;8.43;;;;;;;25.29;46.45;102467.19;5002808;28;20091;-80
2021/09/07 09:23:03;;;;;;;13.52;7.70;;;;;;;25.48;47.13;102475.28;5016188;28;20026;-80
2021/09/07 09:25:38;;;;;;;13.45;7.70;;;;;;;25.77;45.65;102469.47;4998504;28;20032;-80
2021/09/07 09:28:09;;;;;;;14.27;7.45;;;;;;;25.73;44.35;102475.91;5005060;28;20037;-80
2021/09/07 09:30:38;;;;;;;11.50;7.00;;;;;;;25.56;45.12;102477.34;5017023;28;20036;-80
2021/09/07 09:33:05;;;;;;;11.63;7.53;;;;;;;25.94;44.76;102474.31;5002560;28;20038;-80
2021/09/07 09:35:32;;;;;;;13.73;7.55;;;;;;;25.85;44.13;102477.00;5003741;28;20057;-80
2021/09/07 09:38:04;;;;;;;14.70;8.45;;;;;;;25.91;42.69;102477.69;5004302;28;20029;-80
2021/09/07 09:40:30;;;;;;;9.23;7.05;;;;;;;24.83;44.23;102467.28;4998511;28;20037;-80
2021/09/07 09:43:20;;;;;;;13.85;8.80;;;;;;;25.28;45.42;102473.00;5014688;28;20030;-80
2021/09/07 09:45:45;;;;;;;11.70;8.25;;;;;;;24.48;43.43;102473.41;4999131;28;20039;-80
2021/09/07 09:48:28;;;;;;;12.70;6.88;;;;;;;25.28;44.63;102475.72;5002266;28;20025;-80
2021/09/07 09:50:57;;;;;;;13.20;8.25;;;;;;;23.64;46.40;102481.50;5005214;28;20037;-80
2021/09/07 09:53:24;;;;;;;13.10;7.78;;;;;;;23.78;45.52;102471.44;5004426;28;20056;-80
2021/09/07 09:55:50;;;;;;;10.63;6.78;;;;;;;24.21;46.24;102479.56;5002533;28;20100;-80
2021/09/07 09:58:17;;;;;;;14.13;8.52;;;;;;;24.86;45.46;102474.88;5000910;28;20487;-80
2021/09/07 10:00:49;;;;;;;13.40;7.68;;;;;;;24.50;43.48;102471.16;4998566;28;20487;-80
2021/09/07 10:03:16;;;;;;;12.30;7.57;;;;;;;24.85;43.77;102465.03;4998392;28;20041;-80
2021/09/07 10:05:43;;;;;;;13.88;7.85;;;;;;;24.83;43.64;102464.53;5017413;28;20104;-80
2021/09/07 10:08:11;;;;;;;10.55;7.35;;;;;;;23.95;44.66;102470.94;5004878;28;20026;-80
2021/09/07 10:10:58;;;;;;;10.75;7.20;;;;;;;24.41;45.03;102451.84;5004910;28;20044;-80
2021/09/07 10:13:26;;;;;;;12.00;7.80;;;;;;;24.88;42.99;102464.44;5015260;28;20030;-80
2021/09/07 10:15:57;;;;;;;11.32;7.05;;;;;;;25.15;43.76;102457.38;5004157;28;20029;-80
2021/09/07 10:18:42;;;;;;;10.60;6.60;;;;;;;25.34;44.48;102460.81;5010669;28;20068;-80
2021/09/07 10:26:41;;;;;;;10.45;6.53;;;;;;;25.57;42.90;102451.50;5019723;28;20033;-80
2021/09/07 10:29:17;;;;;;;9.40;6.30;;;;;;;26.02;43.37;102459.00;4998342;28;20468;-81
2021/09/07 10:31:48;;;;;;;10.02;6.72;;;;;;;26.41;43.27;102455.63;4995579;28;20030;-80
2021/09/07 10:34:15;;;;;;;11.23;7.15;;;;;;;26.25;42.34;102455.16;5003846;28;20711;-81
2021/09/07 10:37:06;;;;;;;8.48;6.10;;;;;;;26.58;42.06;102447.47;5014542;28;20044;-81
2021/09/07 10:39:33;;;;;;;9.00;5.45;;;;;;;26.51;41.61;102452.59;5003631;28;20547;-80
2021/09/07 10:42:02;;;;;;;9.77;5.65;;;;;;;26.03;41.83;102458.72;5000725;28;20286;-79
2021/09/07 10:44:30;;;;;;;11.32;6.75;;;;;;;26.26;41.25;102448.53;5001280;28;20240;-80
2021/09/07 10:46:57;;;;;;;8.80;5.85;;;;;;;26.56;41.45;102454.38;5005748;28;20029;-80
2021/09/07 10:49:25;;;;;;;8.45;5.25;;;;;;;26.73;39.79;102455.28;5017192;28;20065;-80
2021/09/07 10:52:09;;;;;;;11.73;5.78;;;;;;;26.53;38.14;102458.59;5002610;28;20037;-81
2021/09/07 10:54:53;;;;;;;7.80;4.63;;;;;;;26.06;39.72;102458.09;5004486;28;20036;-80
2021/09/07 10:57:46;;;;;;;7.70;5.37;;;;;;;26.78;40.00;102455.16;5015560;28;20284;-80
2021/09/07 11:00:21;;;;;;;13.23;6.00;;;;;;;27.31;39.30;102456.19;4994943;28;20072;-80
2021/09/07 11:03:07;;;;;;;8.02;4.80;;;;;;;27.67;37.92;102455.94;5009285;28;20030;-80
2021/09/07 11:05:40;;;;;;;8.25;4.75;;;;;;;27.51;36.26;102460.25;5003175;28;20026;-80
2021/09/07 11:08:16;;;;;;;9.73;5.55;;;;;;;26.65;38.50;102450.56;4998876;28;20078;-80
2021/09/07 11:10:41;;;;;;;8.73;5.60;;;;;;;27.16;39.10;102451.94;4999400;28;20041;-80
2021/09/07 11:13:28;;;;;;;8.43;6.05;;;;;;;27.42;39.12;102459.44;5019338;28;20045;-79
2021/09/07 11:15:55;;;;;;;8.52;5.43;;;;;;;27.20;38.30;102452.09;5001455;28;20040;-80
2021/09/07 11:18:26;;;;;;;9.00;6.18;;;;;;;25.48;40.88;102458.84;5006384;28;20037;-80